Latest Weather Observations for Rottnest Island

IDW60801

Issued at 8:04 pm WST Friday 4 September 2015 (issued every 30 minutes, with the page automatically refreshed every 10 minutes)

About weather observations | Map of weather stations | Latest weather observations for WA | Other Formats
Station Details ID: 009193 Name: ROTTNEST ISLAND Lat: -32.01 Lon: 115.50 Height: 43.1 m
Data from the previous 72 hours. | See also: Recent months at Rottnest Island
Date/Time
WST
Temp
°C
App
Temp
°C
Dew
Point
Rel
Hum
%
Delta-T
°C
Wind Press
QNH
hPa
Press
MSL
hPa
Rain
since 9 am
mm
Dir
 
Spd
km/h
Gust
km/h
Spd
kts
Gust
kts
04/08:00pm 17.4 12.3 14.7 84 1.6 NW 35 46 19 25 1016.7 1016.6 0.4
04/07:30pm 16.6 10.7 14.6 88 1.1 NW 39 52 21 28 1016.7 1016.6 0.4
04/07:00pm 17.7 11.1 13.8 78 2.2 NNW 41 50 22 27 1016.1 1016.0 0.0
04/06:30pm 17.6 11.5 13.1 75 2.5 NNW 37 46 20 25 1016.0 1015.9 0.0
04/06:00pm 17.6 11.9 13.1 75 2.5 NW 35 46 19 25 1015.8 1015.7 0.0
04/05:30pm 17.6 11.0 12.5 72 2.8 NNW 39 48 21 26 1015.5 1015.4 0.0
04/05:00pm 17.6 11.7 12.5 72 2.8 NW 35 46 19 25 1015.5 1015.4 0.0
04/04:30pm 17.6 10.7 11.6 68 3.3 NNW 39 46 21 25 1014.7 1014.6 0.0
04/04:00pm 17.8 12.1 11.8 68 3.3 NNW 33 43 18 23 1013.9 1013.8 0.0
04/03:30pm 17.6 11.9 11.2 66 3.5 NNW 32 43 17 23 1014.9 1014.8 0.0
04/03:00pm 17.5 11.8 11.1 66 3.5 NNW 32 39 17 21 1015.2 1015.1 0.0
04/02:30pm 17.9 12.0 11.2 65 3.6 NNW 33 43 18 23 1015.3 1015.2 0.0
04/02:00pm 17.6 11.8 10.7 64 3.7 NW 32 41 17 22 1015.8 1015.7 0.0
04/01:30pm 17.6 11.7 10.5 63 3.8 NNW 32 39 17 21 1016.0 1015.9 0.0
04/01:00pm 18.3 13.2 10.7 61 4.1 NNW 28 35 15 19 1016.1 1016.0 0.0
04/12:30pm 18.9 13.8 10.5 58 4.5 NW 28 35 15 19 1016.6 1016.5 0.0
04/12:00pm 18.0 12.2 9.4 57 4.5 NW 30 35 16 19 1016.5 1016.4 0.0
04/11:30am 18.7 13.4 9.8 56 4.7 NW 28 35 15 19 1016.9 1016.8 0.0
04/11:00am 17.8 12.7 9.2 57 4.5 NW 26 32 14 17 1017.0 1016.9 0.0
04/10:30am 17.2 12.3 8.6 57 4.4 NW 24 30 13 16 1017.1 1017.0 0.0
04/10:00am 18.1 13.8 9.5 57 4.5 NW 22 26 12 14 1017.4 1017.3 0.0
04/09:30am 17.6 13.1 8.7 56 4.6 WNW 22 30 12 16 1017.6 1017.5 0.0
04/09:00am 17.0 12.7 7.9 55 4.6 WNW 20 24 11 13 1017.3 1017.2 0.0
04/08:30am 16.8 12.5 8.0 56 4.5 WNW 20 26 11 14 1017.5 1017.4 0.0
04/08:00am 16.2 12.9 9.6 65 3.4 W 17 22 9 12 1017.4 1017.3 0.0
04/07:30am 15.4 12.0 9.1 66 3.2 WNW 17 20 9 11 1017.0 1016.9 0.0
04/07:00am 14.7 10.9 9.1 69 2.9 WNW 19 20 10 11 1016.8 1016.7 0.0
04/06:30am 14.3 10.9 9.1 71 2.7 WNW 17 20 9 11 1016.4 1016.3 0.0
04/06:00am 14.7 11.7 9.3 70 2.8 WNW 15 17 8 9 1016.0 1015.9 0.0
04/05:30am 15.0 12.5 9.8 71 2.7 W 13 15 7 8 1015.8 1015.7 0.0
04/05:00am 15.2 13.1 9.6 69 2.9 WNW 11 13 6 7 1015.5 1015.4 0.0
04/04:30am 15.3 13.6 9.9 70 2.8 NW 9 11 5 6 1015.4 1015.3 0.0
04/04:00am 15.0 13.3 9.8 71 2.7 NW 9 13 5 7 1015.6 1015.5 0.0
04/03:30am 15.0 12.8 9.4 69 2.9 NNW 11 11 6 6 1015.8 1015.7 0.0
04/03:00am 14.1 11.2 8.3 68 2.9 N 13 15 7 8 1016.0 1015.9 0.0
04/02:30am 14.6 12.4 9.2 70 2.8 N 11 11 6 6 1016.3 1016.2 0.0
04/02:00am 14.5 12.1 8.7 68 2.9 NNE 11 13 6 7 1016.6 1016.5 0.0
04/01:30am 14.1 11.3 8.5 69 2.8 NNE 13 13 7 7 1016.8 1016.7 0.0
04/01:00am 13.8 11.6 9.5 75 2.2 NNE 11 13 6 7 1017.2 1017.1 0.0
04/12:30am 14.4 12.0 10.2 76 2.2 NE 13 13 7 7 1017.3 1017.2 0.0
04/12:00am 14.0 11.6 10.0 77 2.1 E 13 13 7 7 1017.6 1017.5 0.0
 
Date/Time
WST
Temp
°C
App
Temp
°C
Dew
Point
Rel
Hum
%
Delta-T
°C
Wind Press
QNH
hPa
Press
MSL
hPa
Rain
since 9 am
mm
Dir
 
Spd
km/h
Gust
km/h
Spd
kts
Gust
kts
03/11:30pm 14.6 12.1 9.6 72 2.6 E 13 13 7 7 1017.8 1017.7 0.0
03/11:00pm 15.1 12.7 10.1 72 2.6 ESE 13 15 7 8 1018.3 1018.2 0.0
03/10:30pm 15.2 12.4 10.0 71 2.7 SE 15 19 8 10 1018.7 1018.6 0.0
03/10:00pm 15.2 12.0 10.0 71 2.7 SSE 17 20 9 11 1019.2 1019.1 0.0
03/09:30pm 15.5 12.2 9.6 68 3.1 SSE 17 22 9 12 1019.4 1019.3 0.0
03/09:00pm 15.6 11.7 9.5 67 3.2 SSE 20 24 11 13 1019.4 1019.3 0.0
03/08:30pm 15.6 11.9 9.5 67 3.2 SSE 19 24 10 13 1019.5 1019.4 0.0
03/08:00pm 15.4 11.3 8.6 64 3.4 SSE 20 24 11 13 1019.4 1019.3 0.0
03/07:30pm 15.9 11.4 8.6 62 3.7 SSE 22 28 12 15 1019.1 1019.0 0.0
03/07:00pm 15.8 11.2 8.3 61 3.8 SSE 22 26 12 14 1019.1 1019.0 0.0
03/06:30pm 15.6 10.8 7.4 58 4.1 SSE 22 26 12 14 1018.9 1018.8 0.0
03/06:00pm 15.7 10.9 7.5 58 4.1 S 22 28 12 15 1018.6 1018.5 0.0
03/05:30pm 15.8 10.5 7.0 56 4.3 S 24 28 13 15 1018.8 1018.7 0.0
03/05:00pm 16.2 11.0 7.4 56 4.4 S 24 28 13 15 1018.9 1018.8 0.0
03/04:30pm 16.8 12.4 7.2 53 4.8 S 20 24 11 13 1019.1 1019.0 0.0
03/04:00pm 16.8 12.3 6.3 50 5.1 S 19 20 10 11 1019.5 1019.4 0.0
03/03:30pm 17.2 13.2 6.7 50 5.2 S 17 20 9 11 1020.0 1020.0 0.0
03/03:00pm 17.2 13.4 5.8 47 5.5 SSE 15 19 8 10 1020.0 1020.0 0.0
03/02:30pm 17.2 12.5 6.1 48 5.4 SSE 20 22 11 12 1020.0 1020.0 0.0
03/02:00pm 18.2 15.2 4.0 39 6.7 NE 9 19 5 10 1020.5 1020.5 0.0
03/01:30pm 18.4 15.1 4.6 40 6.6 NE 11 17 6 9 1020.7 1020.7 0.0
03/01:00pm 17.6 12.7 4.9 43 6.1 NNE 20 24 11 13 1021.1 1021.1 0.0
03/12:30pm 17.0 12.7 5.3 46 5.6 NE 17 24 9 13 1021.6 1021.6 0.0
03/12:00pm 16.7 12.2 5.9 49 5.2 NE 19 24 10 13 1022.1 1022.1 0.0
03/11:30am 16.6 11.9 5.9 49 5.2 NE 20 28 11 15 1022.3 1022.3 0.0
03/11:00am 16.2 11.5 6.1 51 4.9 NE 20 28 11 15 1022.5 1022.5 0.0
03/10:30am 14.8 8.4 5.1 52 4.6 NE 28 39 15 21 1022.8 1022.8 0.0
03/10:00am 14.3 7.6 5.7 56 4.1 ENE 30 41 16 22 1022.9 1022.9 0.0
03/09:30am 13.5 7.6 5.9 60 3.6 ENE 26 41 14 22 1022.8 1022.8 0.0
03/09:00am 12.5 6.0 6.3 66 2.9 ENE 30 43 16 23 1023.1 1023.1 0.0
03/08:30am 11.8 4.8 5.9 67 2.8 ENE 32 43 17 23 1023.2 1023.2 0.0
03/08:00am 11.8 6.0 6.3 69 2.6 E 26 37 14 20 1023.4 1023.4 0.0
03/07:30am 11.3 5.4 6.0 70 2.5 ENE 26 35 14 19 1023.6 1023.6 0.0
03/07:00am 10.8 5.8 6.4 74 2.1 E 22 32 12 17 1023.5 1023.5 0.0
03/06:30am 10.3 6.3 6.6 78 1.7 E 17 28 9 15 1023.5 1023.5 0.0
03/06:00am 10.2 6.2 6.5 78 1.7 E 17 26 9 14 1023.5 1023.5 0.0
03/05:30am 10.4 6.1 6.9 79 1.7 E 19 26 10 14 1023.4 1023.4 0.0
03/05:00am 10.3 6.3 6.8 79 1.6 E 17 22 9 12 1023.1 1023.1 0.0
03/04:30am 10.3 5.8 6.8 79 1.7 E 20 30 11 16 1022.8 1022.8 0.0
03/04:00am 10.3 5.9 6.6 78 1.7 E 19 24 10 13 1023.2 1023.2 0.0
03/03:30am 10.4 6.0 6.5 77 1.8 E 19 26 10 14 1023.2 1023.2 0.0
03/03:00am 10.6 6.2 6.6 76 1.9 E 19 26 10 14 1023.6 1023.6 0.0
03/02:30am 10.7 6.2 6.3 74 2.1 ESE 19 28 10 15 1023.8 1023.8 0.0
03/02:00am 11.2 6.2 6.3 72 2.3 ESE 22 33 12 18 1023.8 1023.8 0.0
03/01:30am 11.5 6.8 6.2 70 2.5 ESE 20 28 11 15 1024.3 1024.3 0.0
03/01:00am 11.7 6.6 5.8 67 2.7 ESE 22 30 12 16 1024.5 1024.5 0.0
03/12:30am 12.0 6.8 5.4 64 3.1 ESE 22 30 12 16 1024.7 1024.7 0.0
03/12:00am 12.5 6.9 5.2 61 3.4 ESE 24 35 13 19 1024.5 1024.5 0.0
 
Date/Time
WST
Temp
°C
App
Temp
°C
Dew
Point
Rel
Hum
%
Delta-T
°C
Wind Press
QNH
hPa
Press
MSL
hPa
Rain
since 9 am
mm
Dir
 
Spd
km/h
Gust
km/h
Spd
kts
Gust
kts
02/11:30pm 12.8 7.5 5.2 60 3.5 ESE 22 32 12 17 1025.0 1025.0 0.0
02/11:00pm 13.0 7.3 4.9 58 3.7 E 24 33 13 18 1025.3 1025.3 0.0
02/10:30pm 13.1 8.1 4.8 57 3.8 ESE 20 30 11 16 1025.6 1025.6 0.0
02/10:00pm 13.1 8.4 5.0 58 3.7 ESE 19 30 10 16 1025.8 1025.8 0.0
02/09:30pm 13.2 8.4 4.9 57 3.8 ESE 19 28 10 15 1025.6 1025.6 0.0
02/09:00pm 13.3 8.4 5.0 57 3.8 ESE 20 32 11 17 1025.5 1025.5 0.0
02/08:30pm 13.5 9.1 4.9 56 4.0 ESE 17 26 9 14 1025.3 1025.3 0.0
02/08:00pm 13.7 8.7 4.8 55 4.1 ESE 20 28 11 15 1025.1 1025.1 0.0
02/07:30pm 13.8 9.0 4.4 53 4.3 ESE 19 30 10 16 1024.7 1024.7 0.0
02/07:00pm 13.8 9.2 3.6 50 4.6 ESE 17 22 9 12 1024.7 1024.7 0.0
02/06:30pm 13.8 9.2 3.9 51 4.5 ESE 17 24 9 13 1024.6 1024.6 0.0
02/06:00pm 13.8 9.7 4.1 52 4.4 E 15 22 8 12 1024.7 1024.7 0.0
02/05:30pm 14.1 9.0 3.3 48 4.9 E 19 28 10 15 1024.6 1024.6 0.0
02/05:00pm 14.3 10.1 3.7 49 4.8 ESE 15 20 8 11 1024.6 1024.6 0.0
02/04:30pm 14.3 10.0 3.5 48 4.9 ESE 15 24 8 13 1024.6 1024.6 0.0
02/04:00pm 14.1 9.3 4.4 52 4.5 SSE 19 26 10 14 1024.4 1024.4 0.0
02/03:30pm 14.3 9.6 6.2 58 3.9 S 20 26 11 14 1024.6 1024.6 0.0
02/03:00pm 13.9 8.4 5.8 58 3.8 S 24 30 13 16 1024.6 1024.6 0.0
02/02:30pm 13.8 9.1 6.2 60 3.6 S 20 30 11 16 1024.8 1024.8 0.0
02/02:00pm 14.3 9.6 5.9 57 4.0 S 20 28 11 15 1024.7 1024.7 0.0
02/01:30pm 14.3 9.5 4.6 52 4.5 S 19 26 10 14 1024.9 1024.9 0.0
02/01:00pm 14.0 9.8 5.9 58 3.8 SSE 17 22 9 12 1025.4 1025.4 0.0
02/12:30pm 13.6 8.8 4.5 54 4.2 SSE 19 28 10 15 1025.8 1025.8 0.0
02/12:00pm 12.5 8.5 4.7 59 3.6 SSE 15 20 8 11 1026.5 1026.5 0.0
02/11:30am 12.9 8.8 4.6 57 3.8 ESE 15 24 8 13 1026.7 1026.7 0.0
02/11:00am 12.8 7.9 4.3 56 3.8 ESE 19 26 10 14 1027.0 1027.0 0.0
02/10:30am 13.2 8.4 4.6 56 4.0 ESE 19 26 10 14 1027.3 1027.3 0.0
02/10:00am 12.3 7.1 3.5 55 3.9 ESE 20 30 11 16 1027.5 1027.5 0.0
02/09:30am 12.2 6.7 4.2 58 3.6 ESE 22 32 12 17 1027.7 1027.7 0.0
02/09:00am 12.1 7.0 4.3 59 3.5 ESE 20 30 11 16 1028.0 1028.0 0.0
02/08:30am 11.3 5.8 3.8 60 3.3 ESE 22 30 12 16 1027.9 1027.9 0.0
02/08:00am 10.8 4.5 3.8 62 3.1 SE 26 37 14 20 1027.8 1027.8 0.0
02/07:30am 10.4 4.8 3.7 63 2.9 ESE 22 32 12 17 1027.6 1027.6 0.0
02/07:00am 9.4 4.4 3.4 66 2.6 ESE 19 26 10 14 1027.2 1027.2 0.0
02/06:30am 9.1 4.7 2.9 65 2.6 E 15 20 8 11 1027.0 1027.0 0.0
02/06:00am 9.1 4.3 2.4 63 2.8 E 17 20 9 11 1026.6 1026.6 0.0
02/05:30am 9.1 4.3 2.4 63 2.8 E 17 22 9 12 1026.6 1026.6 0.0
02/05:00am 8.8 4.0 2.4 64 2.7 E 17 22 9 12 1026.4 1026.4 0.0
02/04:30am 9.0 4.1 2.3 63 2.8 E 17 22 9 12 1026.2 1026.2 0.0
02/04:00am 9.3 4.3 1.5 58 3.2 E 17 26 9 14 1025.9 1025.9 0.0
02/03:30am 9.5 4.5 1.2 56 3.4 E 17 24 9 13 1025.9 1025.9 0.0
02/03:00am 9.7 4.7 1.4 56 3.4 E 17 22 9 12 1025.7 1025.7 0.0
02/02:30am 9.7 4.8 2.1 59 3.2 ESE 17 26 9 14 1025.7 1025.7 0.0
02/02:00am 9.9 5.4 2.0 58 3.3 ESE 15 22 8 12 1025.8 1025.8 0.0
02/01:30am 10.3 4.8 1.9 56 3.5 ESE 20 28 11 15 1025.9 1025.9 0.0
02/01:00am 10.5 4.7 2.1 56 3.5 ESE 22 30 12 16 1026.0 1026.0 0.0
02/12:30am 10.4 5.2 2.7 59 3.3 E 19 30 10 16 1025.8 1025.8 0.0
02/12:00am 11.1 4.1 2.2 54 3.8 ESE 28 41 15 22 1025.7 1025.7 0.0
 
Date/Time
WST
Temp
°C
App
Temp
°C
Dew
Point
Rel
Hum
%
Delta-T
°C
Wind Press
QNH
hPa
Press
MSL
hPa
Rain
since 9 am
mm
Dir
 
Spd
km/h
Gust
km/h
Spd
kts
Gust
kts
01/11:30pm 11.2 5.5 2.8 56 3.6 ESE 22 33 12 18 1025.7 1025.7 0.0
01/11:00pm 11.4 5.1 3.7 59 3.4 ESE 26 37 14 20 1025.7 1025.7 0.0
01/10:30pm 11.8 6.3 3.8 58 3.6 ESE 22 35 12 19 1025.7 1025.7 0.0
01/10:00pm 12.0 6.2 4.2 59 3.5 SE 24 35 13 19 1025.7 1025.7 0.0
01/09:30pm 12.8 5.2 5.7 62 3.3 SE 35 43 19 23 1025.2 1025.2 0.0
01/09:00pm 13.0 5.3 5.2 59 3.6 SE 35 44 19 24 1025.0 1025.0 0.0
01/08:30pm 12.9 5.8 5.3 60 3.5 SE 32 44 17 24 1024.9 1024.9 0.0

Other Formats:

Comma delimited format used in spreadsheet applications
http://www.bom.gov.au/fwo/IDW60801/IDW60801.94602.axf

JavaScript Object Notation format (JSON) in row-major order
http://www.bom.gov.au/fwo/IDW60801/IDW60801.94602.json